sensor_id;sensor_type;location;lat;lon;timestamp;P1;P2;P0
66336;PMS1003;53139;45.576;5.304;2023-03-01T00:01:08;23.33;18.33;11.33
66336;PMS1003;53139;45.576;5.304;2023-03-01T00:04:11;36.00;26.50;18.75
66336;PMS1003;53139;45.576;5.304;2023-03-01T00:07:11;35.33;27.33;19.00
66336;PMS1003;53139;45.576;5.304;2023-03-01T00:10:12;18.50;14.50;7.00
66336;PMS1003;53139;45.576;5.304;2023-03-01T00:13:13;29.67;25.00;20.00
66336;PMS1003;53139;45.576;5.304;2023-03-01T00:16:15;30.00;23.00;15.00
66336;PMS1003;53139;45.576;5.304;2023-03-01T00:19:35;37.25;25.00;16.50
66336;PMS1003;53139;45.576;5.304;2023-03-01T00:22:36;34.25;26.00;17.00
66336;PMS1003;53139;45.576;5.304;2023-03-01T00:25:40;34.25;27.00;19.25
66336;PMS1003;53139;45.576;5.304;2023-03-01T00:28:42;36.50;25.50;18.25
66336;PMS1003;53139;45.576;5.304;2023-03-01T00:31:42;34.00;25.00;16.25
66336;PMS1003;53139;45.576;5.304;2023-03-01T00:34:43;41.33;31.00;18.67
66336;PMS1003;53139;45.576;5.304;2023-03-01T00:37:53;36.00;28.00;18.75
66336;PMS1003;53139;45.576;5.304;2023-03-01T00:41:02;36.25;25.75;17.75
66336;PMS1003;53139;45.576;5.304;2023-03-01T00:44:04;29.00;21.50;16.00
66336;PMS1003;53139;45.576;5.304;2023-03-01T00:47:04;30.67;26.00;17.33
66336;PMS1003;53139;45.576;5.304;2023-03-01T00:50:05;29.50;23.25;15.00
66336;PMS1003;53139;45.576;5.304;2023-03-01T00:53:06;42.75;25.50;15.75
66336;PMS1003;53139;45.576;5.304;2023-03-01T00:56:07;37.67;32.00;19.00
66336;PMS1003;53139;45.576;5.304;2023-03-01T00:59:08;30.25;22.25;10.75
66336;PMS1003;53139;45.576;5.304;2023-03-01T01:02:08;35.67;29.67;19.00
66336;PMS1003;53139;45.576;5.304;2023-03-01T01:05:09;42.33;29.00;18.33
66336;PMS1003;53139;45.576;5.304;2023-03-01T01:08:09;42.25;33.00;23.75
66336;PMS1003;53139;45.576;5.304;2023-03-01T01:11:10;32.75;28.00;21.00
66336;PMS1003;53139;45.576;5.304;2023-03-01T01:14:11;37.00;31.75;21.00
66336;PMS1003;53139;45.576;5.304;2023-03-01T01:17:12;34.50;31.00;20.00
66336;PMS1003;53139;45.576;5.304;2023-03-01T01:20:12;32.00;29.75;20.25
66336;PMS1003;53139;45.576;5.304;2023-03-01T01:23:13;31.50;27.50;14.50
66336;PMS1003;53139;45.576;5.304;2023-03-01T01:26:15;34.00;29.33;19.00
66336;PMS1003;53139;45.576;5.304;2023-03-01T01:29:17;35.50;29.00;18.50
66336;PMS1003;53139;45.576;5.304;2023-03-01T01:32:17;33.67;30.00;20.00
66336;PMS1003;53139;45.576;5.304;2023-03-01T01:35:17;25.67;22.67;16.33
66336;PMS1003;53139;45.576;5.304;2023-03-01T01:38:18;37.00;29.33;17.33
66336;PMS1003;53139;45.576;5.304;2023-03-01T01:41:18;32.00;29.00;19.00
66336;PMS1003;53139;45.576;5.304;2023-03-01T01:44:20;35.25;23.75;18.25
66336;PMS1003;53139;45.576;5.304;2023-03-01T01:47:25;28.67;28.00;20.67
66336;PMS1003;53139;45.576;5.304;2023-03-01T01:50:32;38.00;29.00;18.25
66336;PMS1003;53139;45.576;5.304;2023-03-01T01:53:38;37.75;31.50;18.75
66336;PMS1003;53139;45.576;5.304;2023-03-01T01:56:40;34.25;31.00;19.75
66336;PMS1003;53139;45.576;5.304;2023-03-01T01:59:45;33.50;26.25;18.25
66336;PMS1003;53139;45.576;5.304;2023-03-01T02:03:12;28.25;21.50;16.50
66336;PMS1003;53139;45.576;5.304;2023-03-01T02:09:30;41.00;29.75;20.25
66336;PMS1003;53139;45.576;5.304;2023-03-01T02:12:32;25.75;22.00;16.00
66336;PMS1003;53139;45.576;5.304;2023-03-01T02:15:34;29.50;26.75;18.25
66336;PMS1003;53139;45.576;5.304;2023-03-01T02:18:36;37.75;24.25;18.00
66336;PMS1003;53139;45.576;5.304;2023-03-01T02:24:57;35.25;31.25;20.25
66336;PMS1003;53139;45.576;5.304;2023-03-01T02:31:16;33.25;27.25;20.25
66336;PMS1003;53139;45.576;5.304;2023-03-01T02:34:37;33.25;27.50;18.50
66336;PMS1003;53139;45.576;5.304;2023-03-01T02:37:39;35.00;26.75;19.25
66336;PMS1003;53139;45.576;5.304;2023-03-01T02:40:41;34.50;29.50;21.25
66336;PMS1003;53139;45.576;5.304;2023-03-01T02:43:42;25.50;25.25;20.00
66336;PMS1003;53139;45.576;5.304;2023-03-01T02:46:44;26.50;25.00;17.00
66336;PMS1003;53139;45.576;5.304;2023-03-01T02:49:46;34.50;29.50;22.25
66336;PMS1003;53139;45.576;5.304;2023-03-01T02:52:47;33.25;28.00;18.00
66336;PMS1003;53139;45.576;5.304;2023-03-01T02:55:55;41.00;29.75;18.75
66336;PMS1003;53139;45.576;5.304;2023-03-01T02:58:57;35.25;31.50;22.00
66336;PMS1003;53139;45.576;5.304;2023-03-01T03:02:00;32.25;28.50;19.75
66336;PMS1003;53139;45.576;5.304;2023-03-01T03:05:05;34.00;28.00;19.50
66336;PMS1003;53139;45.576;5.304;2023-03-01T03:08:10;18.75;15.25;12.25
66336;PMS1003;53139;45.576;5.304;2023-03-01T03:11:11;38.75;31.25;21.00
66336;PMS1003;53139;45.576;5.304;2023-03-01T03:14:12;32.67;22.33;17.00
66336;PMS1003;53139;45.576;5.304;2023-03-01T03:17:14;32.75;31.00;21.25
66336;PMS1003;53139;45.576;5.304;2023-03-01T03:20:16;30.33;26.00;16.67
66336;PMS1003;53139;45.576;5.304;2023-03-01T03:23:22;39.25;29.00;20.00
66336;PMS1003;53139;45.576;5.304;2023-03-01T03:26:23;37.50;29.50;19.75
66336;PMS1003;53139;45.576;5.304;2023-03-01T03:29:23;34.00;28.00;19.25
66336;PMS1003;53139;45.576;5.304;2023-03-01T03:32:24;34.33;28.67;20.33
66336;PMS1003;53139;45.576;5.304;2023-03-01T03:35:26;32.75;28.50;18.00
66336;PMS1003;53139;45.576;5.304;2023-03-01T03:38:29;32.25;26.75;19.00
66336;PMS1003;53139;45.576;5.304;2023-03-01T03:41:30;35.33;26.67;17.33
66336;PMS1003;53139;45.576;5.304;2023-03-01T03:44:30;35.00;26.33;17.67
66336;PMS1003;53139;45.576;5.304;2023-03-01T03:47:30;37.00;29.67;18.33
66336;PMS1003;53139;45.576;5.304;2023-03-01T03:50:31;33.00;28.33;20.33
66336;PMS1003;53139;45.576;5.304;2023-03-01T03:53:32;37.00;32.50;21.75
66336;PMS1003;53139;45.576;5.304;2023-03-01T03:56:33;32.50;27.75;17.75
66336;PMS1003;53139;45.576;5.304;2023-03-01T03:59:33;39.00;31.00;20.67
66336;PMS1003;53139;45.576;5.304;2023-03-01T04:02:33;39.67;31.67;19.67
66336;PMS1003;53139;45.576;5.304;2023-03-01T04:05:34;28.33;26.00;18.33
66336;PMS1003;53139;45.576;5.304;2023-03-01T04:08:36;29.75;25.25;11.50
66336;PMS1003;53139;45.576;5.304;2023-03-01T04:11:36;28.33;26.00;19.00
66336;PMS1003;53139;45.576;5.304;2023-03-01T04:14:38;42.00;30.25;20.00
66336;PMS1003;53139;45.576;5.304;2023-03-01T04:17:42;33.25;24.75;17.50
66336;PMS1003;53139;45.576;5.304;2023-03-01T04:20:45;32.00;28.00;17.75
66336;PMS1003;53139;45.576;5.304;2023-03-01T04:23:46;38.75;33.50;19.75
66336;PMS1003;53139;45.576;5.304;2023-03-01T04:26:47;35.00;33.00;17.75
66336;PMS1003;53139;45.576;5.304;2023-03-01T04:29:47;33.33;27.33;21.00
66336;PMS1003;53139;45.576;5.304;2023-03-01T04:32:47;47.00;36.33;23.33
66336;PMS1003;53139;45.576;5.304;2023-03-01T04:35:48;41.00;29.75;18.00
66336;PMS1003;53139;45.576;5.304;2023-03-01T04:38:49;37.00;32.00;22.25
66336;PMS1003;53139;45.576;5.304;2023-03-01T04:41:50;45.75;36.75;21.25
66336;PMS1003;53139;45.576;5.304;2023-03-01T04:44:50;31.67;27.67;18.33
66336;PMS1003;53139;45.576;5.304;2023-03-01T04:47:51;41.25;34.50;23.25
66336;PMS1003;53139;45.576;5.304;2023-03-01T04:50:52;47.50;36.75;22.00
66336;PMS1003;53139;45.576;5.304;2023-03-01T04:53:52;32.67;24.67;19.67
66336;PMS1003;53139;45.576;5.304;2023-03-01T04:56:53;4.75;0.00;0.00
66336;PMS1003;53139;45.576;5.304;2023-03-01T04:59:53;34.00;27.50;15.50
66336;PMS1003;53139;45.576;5.304;2023-03-01T05:02:59;30.00;27.75;21.25
66336;PMS1003;53139;45.576;5.304;2023-03-01T05:06:00;38.00;28.75;19.50
66336;PMS1003;53139;45.576;5.304;2023-03-01T05:09:01;37.00;29.33;20.33
66336;PMS1003;53139;45.576;5.304;2023-03-01T05:12:01;33.33;29.67;17.67
66336;PMS1003;53139;45.576;5.304;2023-03-01T05:15:01;29.67;27.33;18.33
66336;PMS1003;53139;45.576;5.304;2023-03-01T05:18:06;27.00;25.50;17.00
66336;PMS1003;53139;45.576;5.304;2023-03-01T05:21:12;33.50;29.50;18.75
66336;PMS1003;53139;45.576;5.304;2023-03-01T05:24:15;36.50;31.25;22.25
66336;PMS1003;53139;45.576;5.304;2023-03-01T05:27:16;34.75;26.50;18.00
66336;PMS1003;53139;45.576;5.304;2023-03-01T05:30:17;39.33;27.67;18.33
66336;PMS1003;53139;45.576;5.304;2023-03-01T05:33:18;40.50;28.25;18.00
66336;PMS1003;53139;45.576;5.304;2023-03-01T05:36:18;30.50;26.00;18.75
66336;PMS1003;53139;45.576;5.304;2023-03-01T05:39:20;37.75;30.50;21.50
66336;PMS1003;53139;45.576;5.304;2023-03-01T05:42:22;43.00;34.75;22.75
66336;PMS1003;53139;45.576;5.304;2023-03-01T05:45:23;39.00;29.00;19.67
66336;PMS1003;53139;45.576;5.304;2023-03-01T05:48:24;42.25;32.75;22.00
66336;PMS1003;53139;45.576;5.304;2023-03-01T05:51:25;38.00;31.75;22.50
66336;PMS1003;53139;45.576;5.304;2023-03-01T05:54:26;41.67;32.00;23.67
66336;PMS1003;53139;45.576;5.304;2023-03-01T05:57:27;34.25;29.00;19.00
66336;PMS1003;53139;45.576;5.304;2023-03-01T06:00:28;33.00;30.75;20.50
66336;PMS1003;53139;45.576;5.304;2023-03-01T06:03:30;42.50;27.75;17.25
66336;PMS1003;53139;45.576;5.304;2023-03-01T06:06:33;53.67;34.00;22.00
66336;PMS1003;53139;45.576;5.304;2023-03-01T06:09:34;39.00;33.50;19.25
66336;PMS1003;53139;45.576;5.304;2023-03-01T06:12:34;41.67;33.67;23.00
66336;PMS1003;53139;45.576;5.304;2023-03-01T06:15:36;39.50;30.75;19.75
66336;PMS1003;53139;45.576;5.304;2023-03-01T06:18:37;36.67;29.67;18.00
66336;PMS1003;53139;45.576;5.304;2023-03-01T06:21:37;38.75;31.00;21.75
66336;PMS1003;53139;45.576;5.304;2023-03-01T06:24:38;38.67;32.33;20.67
66336;PMS1003;53139;45.576;5.304;2023-03-01T06:27:38;42.00;32.50;21.00
66336;PMS1003;53139;45.576;5.304;2023-03-01T06:30:40;44.25;35.75;24.25
66336;PMS1003;53139;45.576;5.304;2023-03-01T06:33:40;37.67;34.00;20.67
66336;PMS1003;53139;45.576;5.304;2023-03-01T06:36:40;45.67;33.67;21.67
66336;PMS1003;53139;45.576;5.304;2023-03-01T06:39:41;42.00;32.00;21.00
66336;PMS1003;53139;45.576;5.304;2023-03-01T06:42:42;47.00;37.00;22.67
66336;PMS1003;53139;45.576;5.304;2023-03-01T06:45:43;52.50;36.25;20.50
66336;PMS1003;53139;45.576;5.304;2023-03-01T06:48:44;40.50;35.50;24.75
66336;PMS1003;53139;45.576;5.304;2023-03-01T06:51:44;57.33;40.33;23.33
66336;PMS1003;53139;45.576;5.304;2023-03-01T06:54:44;46.67;37.33;23.67
66336;PMS1003;53139;45.576;5.304;2023-03-01T06:57:45;44.25;35.00;23.00
66336;PMS1003;53139;45.576;5.304;2023-03-01T07:00:46;43.75;33.75;21.25
66336;PMS1003;53139;45.576;5.304;2023-03-01T07:03:46;21.50;15.00;3.50
66336;PMS1003;53139;45.576;5.304;2023-03-01T07:06:47;44.25;34.25;17.25
66336;PMS1003;53139;45.576;5.304;2023-03-01T07:09:54;43.00;35.25;21.75
66336;PMS1003;53139;45.576;5.304;2023-03-01T07:12:55;43.33;34.33;23.00
66336;PMS1003;53139;45.576;5.304;2023-03-01T07:15:56;42.25;35.00;22.00
66336;PMS1003;53139;45.576;5.304;2023-03-01T07:18:56;39.25;34.50;24.50
66336;PMS1003;53139;45.576;5.304;2023-03-01T07:21:57;39.33;36.67;23.67
66336;PMS1003;53139;45.576;5.304;2023-03-01T07:24:57;39.00;32.67;23.67
66336;PMS1003;53139;45.576;5.304;2023-03-01T07:27:58;39.00;31.33;22.33
66336;PMS1003;53139;45.576;5.304;2023-03-01T07:31:02;51.25;38.00;25.50
66336;PMS1003;53139;45.576;5.304;2023-03-01T07:34:03;30.75;23.50;16.50
66336;PMS1003;53139;45.576;5.304;2023-03-01T07:37:05;49.25;34.50;21.00
66336;PMS1003;53139;45.576;5.304;2023-03-01T07:40:06;44.67;33.00;23.33
66336;PMS1003;53139;45.576;5.304;2023-03-01T07:43:07;39.25;33.50;23.50
66336;PMS1003;53139;45.576;5.304;2023-03-01T07:46:07;36.33;25.67;19.00
66336;PMS1003;53139;45.576;5.304;2023-03-01T07:49:08;44.00;39.75;25.75
66336;PMS1003;53139;45.576;5.304;2023-03-01T07:52:11;42.25;35.00;20.00
66336;PMS1003;53139;45.576;5.304;2023-03-01T07:55:12;44.25;35.25;24.25
66336;PMS1003;53139;45.576;5.304;2023-03-01T07:58:13;48.75;38.50;24.25
66336;PMS1003;53139;45.576;5.304;2023-03-01T08:01:14;45.00;38.00;22.00
66336;PMS1003;53139;45.576;5.304;2023-03-01T08:04:16;47.50;39.00;23.75
66336;PMS1003;53139;45.576;5.304;2023-03-01T08:07:16;45.00;36.25;25.00
66336;PMS1003;53139;45.576;5.304;2023-03-01T08:10:16;33.67;26.00;23.00
66336;PMS1003;53139;45.576;5.304;2023-03-01T08:13:17;39.67;32.33;22.00
66336;PMS1003;53139;45.576;5.304;2023-03-01T08:16:22;54.25;33.50;22.75
66336;PMS1003;53139;45.576;5.304;2023-03-01T08:19:23;43.75;30.75;20.25
66336;PMS1003;53139;45.576;5.304;2023-03-01T08:22:23;44.00;34.00;24.25
66336;PMS1003;53139;45.576;5.304;2023-03-01T08:25:24;50.25;37.50;23.50
66336;PMS1003;53139;45.576;5.304;2023-03-01T08:28:24;47.67;38.00;26.00
66336;PMS1003;53139;45.576;5.304;2023-03-01T08:31:26;45.67;35.67;24.00
66336;PMS1003;53139;45.576;5.304;2023-03-01T08:34:29;21.00;16.00;6.00
66336;PMS1003;53139;45.576;5.304;2023-03-01T08:37:31;48.50;32.75;21.25
66336;PMS1003;53139;45.576;5.304;2023-03-01T08:40:33;38.00;31.75;20.75
66336;PMS1003;53139;45.576;5.304;2023-03-01T08:43:33;44.67;39.00;24.33
66336;PMS1003;53139;45.576;5.304;2023-03-01T08:46:37;42.67;34.67;21.33
66336;PMS1003;53139;45.576;5.304;2023-03-01T08:49:40;54.00;39.75;22.50
66336;PMS1003;53139;45.576;5.304;2023-03-01T08:52:40;45.25;37.00;23.75
66336;PMS1003;53139;45.576;5.304;2023-03-01T08:55:40;49.00;34.00;24.50
66336;PMS1003;53139;45.576;5.304;2023-03-01T08:58:44;35.00;34.67;24.33
66336;PMS1003;53139;45.576;5.304;2023-03-01T09:01:46;46.00;40.25;24.75
66336;PMS1003;53139;45.576;5.304;2023-03-01T09:04:46;51.33;40.67;26.67
66336;PMS1003;53139;45.576;5.304;2023-03-01T09:07:46;53.00;39.67;24.00
66336;PMS1003;53139;45.576;5.304;2023-03-01T09:10:47;47.00;40.67;28.00
66336;PMS1003;53139;45.576;5.304;2023-03-01T09:13:48;47.75;38.50;27.50
66336;PMS1003;53139;45.576;5.304;2023-03-01T09:16:49;49.00;41.00;22.25
66336;PMS1003;53139;45.576;5.304;2023-03-01T09:19:49;62.50;45.50;27.50
66336;PMS1003;53139;45.576;5.304;2023-03-01T09:22:50;51.00;42.00;25.33
66336;PMS1003;53139;45.576;5.304;2023-03-01T09:25:50;48.00;41.00;26.33
66336;PMS1003;53139;45.576;5.304;2023-03-01T09:28:51;40.67;39.00;25.67
66336;PMS1003;53139;45.576;5.304;2023-03-01T09:31:53;51.25;37.50;24.25
66336;PMS1003;53139;45.576;5.304;2023-03-01T09:34:57;47.75;38.50;26.75
66336;PMS1003;53139;45.576;5.304;2023-03-01T09:38:04;49.75;40.00;26.50
66336;PMS1003;53139;45.576;5.304;2023-03-01T09:41:19;48.67;37.33;25.00
66336;PMS1003;53139;45.576;5.304;2023-03-01T09:47:50;54.75;40.00;24.75
66336;PMS1003;53139;45.576;5.304;2023-03-01T09:50:51;48.25;37.50;24.25
66336;PMS1003;53139;45.576;5.304;2023-03-01T09:53:51;50.25;40.25;24.50
66336;PMS1003;53139;45.576;5.304;2023-03-01T10:00:24;53.25;43.50;25.25
66336;PMS1003;53139;45.576;5.304;2023-03-01T10:03:55;50.25;39.25;25.00
66336;PMS1003;53139;45.576;5.304;2023-03-01T10:07:16;48.00;36.25;20.75
66336;PMS1003;53139;45.576;5.304;2023-03-01T10:10:33;55.00;42.25;28.00
66336;PMS1003;53139;45.576;5.304;2023-03-01T10:13:42;49.50;39.00;25.75
66336;PMS1003;53139;45.576;5.304;2023-03-01T10:16:54;55.00;38.00;28.00
66336;PMS1003;53139;45.576;5.304;2023-03-01T10:20:14;52.00;40.50;27.75
66336;PMS1003;53139;45.576;5.304;2023-03-01T10:23:15;44.75;28.00;18.00
66336;PMS1003;53139;45.576;5.304;2023-03-01T10:26:25;50.33;35.33;21.67
66336;PMS1003;53139;45.576;5.304;2023-03-01T10:29:39;44.25;35.00;23.50
66336;PMS1003;53139;45.576;5.304;2023-03-01T10:32:49;42.00;34.50;22.25
66336;PMS1003;53139;45.576;5.304;2023-03-01T10:35:53;51.75;42.25;25.00
66336;PMS1003;53139;45.576;5.304;2023-03-01T10:38:54;47.25;40.25;27.00
66336;PMS1003;53139;45.576;5.304;2023-03-01T10:42:04;52.25;42.25;27.00
66336;PMS1003;53139;45.576;5.304;2023-03-01T10:45:38;59.75;45.25;27.75
66336;PMS1003;53139;45.576;5.304;2023-03-01T10:48:39;52.75;41.00;27.25
66336;PMS1003;53139;45.576;5.304;2023-03-01T10:51:40;65.00;43.33;29.00
66336;PMS1003;53139;45.576;5.304;2023-03-01T10:54:41;59.50;44.50;27.75
66336;PMS1003;53139;45.576;5.304;2023-03-01T10:58:38;57.00;41.75;26.75
66336;PMS1003;53139;45.576;5.304;2023-03-01T11:04:16;56.25;39.00;25.75
66336;PMS1003;53139;45.576;5.304;2023-03-01T11:07:17;51.75;39.75;23.50
66336;PMS1003;53139;45.576;5.304;2023-03-01T11:10:18;52.50;40.50;25.75
66336;PMS1003;53139;45.576;5.304;2023-03-01T11:13:20;44.25;37.50;23.50
66336;PMS1003;53139;45.576;5.304;2023-03-01T11:16:25;36.00;34.33;25.33
66336;PMS1003;53139;45.576;5.304;2023-03-01T11:19:28;57.75;46.25;27.25
66336;PMS1003;53139;45.576;5.304;2023-03-01T11:22:29;57.75;41.25;24.50
66336;PMS1003;53139;45.576;5.304;2023-03-01T11:25:34;57.75;40.00;27.00
66336;PMS1003;53139;45.576;5.304;2023-03-01T11:28:37;58.25;45.50;27.50
66336;PMS1003;53139;45.576;5.304;2023-03-01T11:31:40;59.25;43.25;25.25
66336;PMS1003;53139;45.576;5.304;2023-03-01T11:34:49;46.25;39.75;24.50
66336;PMS1003;53139;45.576;5.304;2023-03-01T11:41:15;63.33;43.00;26.33
66336;PMS1003;53139;45.576;5.304;2023-03-01T11:44:22;49.25;39.25;26.00
66336;PMS1003;53139;45.576;5.304;2023-03-01T11:47:33;53.25;42.75;24.50
66336;PMS1003;53139;45.576;5.304;2023-03-01T11:50:48;49.25;40.25;24.75
66336;PMS1003;53139;45.576;5.304;2023-03-01T12:17:06;48.75;36.50;21.00
66336;PMS1003;53139;45.576;5.304;2023-03-01T12:20:22;59.50;45.50;27.75
66336;PMS1003;53139;45.576;5.304;2023-03-01T12:30:35;54.00;42.50;21.25
66336;PMS1003;53139;45.576;5.304;2023-03-01T12:40:38;48.75;37.25;26.75
66336;PMS1003;53139;45.576;5.304;2023-03-01T12:47:19;98.50;74.50;43.50
66336;PMS1003;53139;45.576;5.304;2023-03-01T12:50:23;89.00;63.75;38.50
66336;PMS1003;53139;45.576;5.304;2023-03-01T12:53:49;52.75;42.25;27.50
66336;PMS1003;53139;45.576;5.304;2023-03-01T12:56:53;53.00;40.25;25.00
66336;PMS1003;53139;45.576;5.304;2023-03-01T13:00:01;58.25;42.50;26.25
66336;PMS1003;53139;45.576;5.304;2023-03-01T13:03:31;54.75;41.75;27.00
66336;PMS1003;53139;45.576;5.304;2023-03-01T13:19:29;60.00;42.25;26.50
66336;PMS1003;53139;45.576;5.304;2023-03-01T13:22:32;53.25;39.00;26.00
66336;PMS1003;53139;45.576;5.304;2023-03-01T13:25:33;56.50;39.00;28.25
66336;PMS1003;53139;45.576;5.304;2023-03-01T13:34:47;53.50;41.25;25.75
66336;PMS1003;53139;45.576;5.304;2023-03-01T13:37:52;45.75;38.75;25.25
66336;PMS1003;53139;45.576;5.304;2023-03-01T13:41:13;56.25;44.50;27.25
66336;PMS1003;53139;45.576;5.304;2023-03-01T13:44:24;45.50;39.25;23.00
66336;PMS1003;53139;45.576;5.304;2023-03-01T13:47:28;48.75;40.00;26.00
66336;PMS1003;53139;45.576;5.304;2023-03-01T13:50:30;56.75;42.75;26.00
66336;PMS1003;53139;45.576;5.304;2023-03-01T13:53:39;60.25;43.00;27.50
66336;PMS1003;53139;45.576;5.304;2023-03-01T13:56:42;54.00;42.75;26.00
66336;PMS1003;53139;45.576;5.304;2023-03-01T13:59:46;51.25;41.25;24.50
66336;PMS1003;53139;45.576;5.304;2023-03-01T14:02:58;50.25;40.25;25.50
66336;PMS1003;53139;45.576;5.304;2023-03-01T14:06:05;54.50;37.75;22.00
66336;PMS1003;53139;45.576;5.304;2023-03-01T14:09:14;55.75;39.25;26.00
66336;PMS1003;53139;45.576;5.304;2023-03-01T14:12:49;45.00;39.00;25.25
66336;PMS1003;53139;45.576;5.304;2023-03-01T14:19:10;49.50;39.75;25.75
66336;PMS1003;53139;45.576;5.304;2023-03-01T14:22:18;52.75;39.50;26.00
66336;PMS1003;53139;45.576;5.304;2023-03-01T14:25:23;53.00;41.00;26.00
66336;PMS1003;53139;45.576;5.304;2023-03-01T14:28:27;51.50;41.25;24.25
66336;PMS1003;53139;45.576;5.304;2023-03-01T14:34:42;59.00;43.25;26.00
66336;PMS1003;53139;45.576;5.304;2023-03-01T14:37:47;60.75;47.50;28.00
66336;PMS1003;53139;45.576;5.304;2023-03-01T14:40:51;53.00;40.25;25.25
66336;PMS1003;53139;45.576;5.304;2023-03-01T14:43:58;51.75;39.25;25.75
66336;PMS1003;53139;45.576;5.304;2023-03-01T14:47:02;56.25;44.25;28.00
66336;PMS1003;53139;45.576;5.304;2023-03-01T14:53:05;50.75;39.25;26.50
66336;PMS1003;53139;45.576;5.304;2023-03-01T14:56:14;55.50;43.00;27.00
66336;PMS1003;53139;45.576;5.304;2023-03-01T14:59:22;59.25;43.25;26.50
66336;PMS1003;53139;45.576;5.304;2023-03-01T15:02:24;56.25;43.25;27.00
66336;PMS1003;53139;45.576;5.304;2023-03-01T15:05:30;53.50;43.00;26.75
66336;PMS1003;53139;45.576;5.304;2023-03-01T15:08:31;51.25;41.25;25.50
66336;PMS1003;53139;45.576;5.304;2023-03-01T15:11:34;57.75;45.00;29.00
66336;PMS1003;53139;45.576;5.304;2023-03-01T15:14:42;58.25;42.50;26.00
66336;PMS1003;53139;45.576;5.304;2023-03-01T15:17:43;59.50;45.25;27.50
66336;PMS1003;53139;45.576;5.304;2023-03-01T15:20:44;59.50;43.25;27.50
66336;PMS1003;53139;45.576;5.304;2023-03-01T15:23:48;52.75;42.25;24.50
66336;PMS1003;53139;45.576;5.304;2023-03-01T15:29:56;46.00;33.75;25.25
66336;PMS1003;53139;45.576;5.304;2023-03-01T15:39:54;49.50;38.00;23.50
66336;PMS1003;53139;45.576;5.304;2023-03-01T15:43:00;58.00;44.50;28.75
66336;PMS1003;53139;45.576;5.304;2023-03-01T15:46:03;48.00;37.75;19.75
66336;PMS1003;53139;45.576;5.304;2023-03-01T15:49:04;56.50;41.75;26.75
66336;PMS1003;53139;45.576;5.304;2023-03-01T15:52:22;53.75;42.00;26.00
66336;PMS1003;53139;45.576;5.304;2023-03-01T15:55:30;53.50;41.25;25.50
66336;PMS1003;53139;45.576;5.304;2023-03-01T15:58:33;51.75;40.25;27.25
66336;PMS1003;53139;45.576;5.304;2023-03-01T16:01:33;50.00;42.67;26.00
66336;PMS1003;53139;45.576;5.304;2023-03-01T16:04:34;62.00;43.00;26.25
66336;PMS1003;53139;45.576;5.304;2023-03-01T16:07:35;57.00;43.33;26.33
66336;PMS1003;53139;45.576;5.304;2023-03-01T16:10:40;57.25;43.00;28.25
66336;PMS1003;53139;45.576;5.304;2023-03-01T16:13:43;48.00;38.50;23.75
66336;PMS1003;53139;45.576;5.304;2023-03-01T16:16:44;53.25;43.00;26.00
66336;PMS1003;53139;45.576;5.304;2023-03-01T16:19:45;46.25;38.50;25.50
66336;PMS1003;53139;45.576;5.304;2023-03-01T16:22:46;53.33;43.00;27.00
66336;PMS1003;53139;45.576;5.304;2023-03-01T16:25:46;60.75;40.25;24.25
66336;PMS1003;53139;45.576;5.304;2023-03-01T16:28:47;51.50;43.50;26.00
66336;PMS1003;53139;45.576;5.304;2023-03-01T16:31:48;58.25;41.50;26.25
66336;PMS1003;53139;45.576;5.304;2023-03-01T16:34:48;54.33;41.67;26.33
66336;PMS1003;53139;45.576;5.304;2023-03-01T16:37:49;56.50;43.25;25.75
66336;PMS1003;53139;45.576;5.304;2023-03-01T16:40:50;53.00;41.00;24.75
66336;PMS1003;53139;45.576;5.304;2023-03-01T16:43:51;54.25;42.75;25.75
66336;PMS1003;53139;45.576;5.304;2023-03-01T16:46:52;47.50;40.25;26.50
66336;PMS1003;53139;45.576;5.304;2023-03-01T16:49:55;63.33;44.33;26.33
66336;PMS1003;53139;45.576;5.304;2023-03-01T16:52:55;72.00;56.00;33.50
66336;PMS1003;53139;45.576;5.304;2023-03-01T16:55:56;51.00;42.50;27.00
66336;PMS1003;53139;45.576;5.304;2023-03-01T16:58:58;56.00;42.75;28.75
66336;PMS1003;53139;45.576;5.304;2023-03-01T17:01:58;52.00;40.00;27.00
66336;PMS1003;53139;45.576;5.304;2023-03-01T17:04:58;57.00;40.33;25.67
66336;PMS1003;53139;45.576;5.304;2023-03-01T17:07:59;60.00;43.33;28.33
66336;PMS1003;53139;45.576;5.304;2023-03-01T17:11:03;50.25;41.50;26.00
66336;PMS1003;53139;45.576;5.304;2023-03-01T17:14:04;65.50;44.25;28.25
66336;PMS1003;53139;45.576;5.304;2023-03-01T17:17:04;64.67;48.00;29.33
66336;PMS1003;53139;45.576;5.304;2023-03-01T17:20:05;61.33;47.00;29.00
66336;PMS1003;53139;45.576;5.304;2023-03-01T17:23:06;64.75;47.50;28.25
66336;PMS1003;53139;45.576;5.304;2023-03-01T17:26:06;62.00;47.75;29.75
66336;PMS1003;53139;45.576;5.304;2023-03-01T17:29:07;61.75;48.00;29.25
66336;PMS1003;53139;45.576;5.304;2023-03-01T17:32:08;64.75;48.25;31.00
66336;PMS1003;53139;45.576;5.304;2023-03-01T17:35:08;64.50;48.75;29.75
66336;PMS1003;53139;45.576;5.304;2023-03-01T17:38:11;66.75;50.00;30.00
66336;PMS1003;53139;45.576;5.304;2023-03-01T17:41:12;58.25;46.25;30.00
66336;PMS1003;53139;45.576;5.304;2023-03-01T17:44:14;85.00;64.00;39.00
66336;PMS1003;53139;45.576;5.304;2023-03-01T17:47:15;69.67;52.33;34.00
66336;PMS1003;53139;45.576;5.304;2023-03-01T17:50:15;71.75;52.75;34.25
66336;PMS1003;53139;45.576;5.304;2023-03-01T17:53:16;70.75;53.25;30.75
66336;PMS1003;53139;45.576;5.304;2023-03-01T17:56:17;61.50;47.00;29.50
66336;PMS1003;53139;45.576;5.304;2023-03-01T17:59:17;66.25;47.25;29.75
66336;PMS1003;53139;45.576;5.304;2023-03-01T18:02:18;65.25;50.25;31.00
66336;PMS1003;53139;45.576;5.304;2023-03-01T18:05:19;62.50;46.00;29.25
66336;PMS1003;53139;45.576;5.304;2023-03-01T18:08:19;67.67;50.33;30.33
66336;PMS1003;53139;45.576;5.304;2023-03-01T18:11:20;61.33;45.00;29.00
66336;PMS1003;53139;45.576;5.304;2023-03-01T18:14:22;75.75;56.50;34.50
66336;PMS1003;53139;45.576;5.304;2023-03-01T18:17:23;60.25;44.00;26.25
66336;PMS1003;53139;45.576;5.304;2023-03-01T18:20:24;70.25;54.75;33.75
66336;PMS1003;53139;45.576;5.304;2023-03-01T18:23:24;63.25;47.75;30.25
66336;PMS1003;53139;45.576;5.304;2023-03-01T18:26:25;66.50;50.50;32.50
66336;PMS1003;53139;45.576;5.304;2023-03-01T18:29:28;61.25;46.75;30.25
66336;PMS1003;53139;45.576;5.304;2023-03-01T18:32:28;76.25;58.00;36.50
66336;PMS1003;53139;45.576;5.304;2023-03-01T18:35:29;64.75;49.00;30.25
66336;PMS1003;53139;45.576;5.304;2023-03-01T18:38:30;64.00;50.75;33.50
66336;PMS1003;53139;45.576;5.304;2023-03-01T18:41:31;75.50;54.25;35.00
66336;PMS1003;53139;45.576;5.304;2023-03-01T18:44:32;76.75;56.75;35.50
66336;PMS1003;53139;45.576;5.304;2023-03-01T18:47:33;75.50;53.00;34.50
66336;PMS1003;53139;45.576;5.304;2023-03-01T18:50:33;69.00;52.33;30.00